createdAt,value
2023-04-18T00:21:55.026Z,11.25
2023-04-18T00:24:52.681Z,11.26
2023-04-18T00:32:52.581Z,11.27
2023-04-18T00:36:10.720Z,11.27
2023-04-18T00:39:01.922Z,11.27
2023-04-18T00:45:26.462Z,11.30
2023-04-18T00:48:18.929Z,11.34
2023-04-18T00:51:14.551Z,11.37
2023-04-18T00:54:13.953Z,11.38
2023-04-18T00:57:19.299Z,11.40
2023-04-18T01:00:15.638Z,11.45
2023-04-18T01:10:35.479Z,11.57
2023-04-18T02:46:22.323Z,10.80
2023-04-18T02:49:58.678Z,10.80
2023-04-18T02:53:49.164Z,10.80
2023-04-18T02:57:17.662Z,10.81
2023-04-18T03:12:30.766Z,10.88
2023-04-18T03:16:42.363Z,10.88
2023-04-18T03:20:16.577Z,10.87
2023-04-18T03:44:38.795Z,10.73
2023-04-18T03:47:54.571Z,10.75
2023-04-18T03:51:08.313Z,10.75
2023-04-18T03:54:11.844Z,10.76
2023-04-18T03:57:31.342Z,10.80
2023-04-18T04:00:46.639Z,10.85
2023-04-18T04:04:23.673Z,10.90
2023-04-18T04:07:29.367Z,10.97
2023-04-18T04:14:14.564Z,11.01
2023-04-18T04:21:42.134Z,11.04
2023-04-18T04:34:09.414Z,11.00
2023-04-18T04:41:48.684Z,10.96
2023-04-18T04:45:31.751Z,10.93
2023-04-18T04:59:55.480Z,10.82
2023-04-18T05:03:14.878Z,10.81
2023-04-18T05:07:09.737Z,10.81
2023-04-18T05:10:25.287Z,10.83
2023-04-18T05:13:58.033Z,10.87
2023-04-18T05:17:45.040Z,10.89
2023-04-18T05:29:21.178Z,10.88
2023-04-18T05:32:45.834Z,10.82
2023-04-18T05:48:45.722Z,10.61
2023-04-18T06:01:51.970Z,10.70
2023-04-18T06:04:56.877Z,10.78
2023-04-18T06:07:49.581Z,10.83
2023-04-18T06:11:38.790Z,10.87
2023-04-18T06:14:30.024Z,10.96
2023-04-18T06:17:21.623Z,11.02
2023-04-18T06:20:13.351Z,11.08
2023-04-18T06:23:20.548Z,11.11
2023-04-18T06:26:21.191Z,11.14
2023-04-18T06:29:14.996Z,11.15
2023-04-18T06:32:06.434Z,11.14
2023-04-18T06:35:02.085Z,11.14
2023-04-18T06:37:56.101Z,11.15
2023-04-18T06:40:47.077Z,11.16
2023-04-18T06:43:49.140Z,11.18
2023-04-18T06:46:53.716Z,11.20
2023-04-18T06:49:50.788Z,11.19
2023-04-18T06:52:46.008Z,11.18
2023-04-18T06:56:09.502Z,11.23
2023-04-18T06:59:10.441Z,11.34
2023-04-18T07:02:49.471Z,11.44
2023-04-18T07:05:40.796Z,11.52
2023-04-18T07:08:31.927Z,11.60
2023-04-18T07:11:37.536Z,11.73
2023-04-18T07:14:28.884Z,11.90
2023-04-18T07:17:33.363Z,12.06
2023-04-18T07:20:37.661Z,12.26
2023-04-18T07:23:44.044Z,12.46
2023-04-18T07:26:39.617Z,12.61
2023-04-18T07:29:30.842Z,12.75
2023-04-18T07:32:21.653Z,13.25
2023-04-18T07:35:25.367Z,13.69
2023-04-18T07:38:24.472Z,13.67
2023-04-18T07:41:17.795Z,13.40
2023-04-18T07:44:15.379Z,13.17
2023-04-18T07:47:11.285Z,13.36
2023-04-18T07:50:04.651Z,13.58
2023-04-18T07:52:56.239Z,13.58
2023-04-18T07:55:56.767Z,13.48
2023-04-18T08:04:29.110Z,13.19
2023-04-18T08:12:01.812Z,15.24
2023-04-18T08:15:25.959Z,16.50
2023-04-18T08:19:04.929Z,17.44
2023-04-18T08:22:31.862Z,18.06
2023-04-18T08:26:27.040Z,18.55
2023-04-18T08:40:58.889Z,19.82
2023-04-18T08:44:14.003Z,19.43
2023-04-18T08:47:50.576Z,19.83
2023-04-18T08:51:21.156Z,20.28
2023-04-18T09:02:58.986Z,22.60
2023-04-18T09:06:15.090Z,22.68
2023-04-18T09:09:18.854Z,22.44
2023-04-18T09:12:31.430Z,21.98
2023-04-18T09:15:37.900Z,21.65
2023-04-18T09:18:44.964Z,21.31
2023-04-18T09:21:49.056Z,21.59
2023-04-18T09:24:57.759Z,22.38
2023-04-18T09:28:36.786Z,23.57
2023-04-18T09:32:03.397Z,24.94
2023-04-18T09:35:41.620Z,26.17
2023-04-18T09:38:46.601Z,26.87
2023-04-18T09:41:37.710Z,27.38
2023-04-18T10:09:50.054Z,31.07
2023-04-18T10:21:30.303Z,31.37
2023-04-18T10:25:17.341Z,31.60
2023-04-18T10:31:55.531Z,32.13
2023-04-18T10:39:14.905Z,32.43
2023-04-18T10:46:31.608Z,31.69
2023-04-18T10:53:02.482Z,30.56
2023-04-18T10:55:57.051Z,31.01
2023-04-18T10:59:16.430Z,31.67
2023-04-18T11:02:43.807Z,32.18
2023-04-18T11:05:40.351Z,32.70
2023-04-18T11:12:56.152Z,32.74
2023-04-18T11:20:29.927Z,32.88
2023-04-18T11:31:25.860Z,29.94
2023-04-18T11:34:51.312Z,28.29
2023-04-18T11:38:28.366Z,27.34
2023-04-18T11:41:32.674Z,27.89
2023-04-18T11:44:40.165Z,27.78
2023-04-18T11:51:44.961Z,27.63
2023-04-18T11:54:57.429Z,27.70
2023-04-18T11:57:55.752Z,27.42
2023-04-18T12:00:49.233Z,27.48
2023-04-18T12:03:40.520Z,26.98
2023-04-18T12:06:46.755Z,26.58
2023-04-18T12:13:27.336Z,27.51
2023-04-18T12:16:19.979Z,28.97
2023-04-18T12:22:20.573Z,30.47
2023-04-18T12:25:37.272Z,31.21
2023-04-18T12:29:30.513Z,32.04
2023-04-18T12:36:08.978Z,31.96
2023-04-18T12:39:02.881Z,31.06
2023-04-18T12:42:22.021Z,30.14
2023-04-18T12:45:13.517Z,27.41
2023-04-18T12:51:43.945Z,26.65
2023-04-18T12:54:47.271Z,25.92
2023-04-18T12:58:01.655Z,25.03
2023-04-18T13:01:02.917Z,23.90
2023-04-18T13:04:12.992Z,22.67
2023-04-18T13:07:08.061Z,23.64
2023-04-18T13:10:10.837Z,24.28
2023-04-18T13:13:06.910Z,23.84
2023-04-18T13:16:10.257Z,24.67
2023-04-18T13:19:14.348Z,23.55
2023-04-18T13:22:48.126Z,22.83
2023-04-18T13:26:09.750Z,22.15
2023-04-18T13:37:02.177Z,21.45
2023-04-18T13:40:35.068Z,20.45
2023-04-18T13:47:45.132Z,19.77
2023-04-18T13:52:21.572Z,18.92
2023-04-18T13:55:54.328Z,18.11
2023-04-18T13:59:01.233Z,17.60
2023-04-18T14:02:11.335Z,17.97
2023-04-18T14:05:35.382Z,17.94
2023-04-18T14:21:16.692Z,17.82
2023-04-18T14:28:53.603Z,17.46
2023-04-18T14:44:49.162Z,16.48
2023-04-18T14:48:14.086Z,16.23
2023-04-18T16:00:59.332Z,15.66
2023-04-18T16:04:31.457Z,15.66
2023-04-18T16:24:41.965Z,15.52
2023-04-18T16:35:29.183Z,15.12
2023-04-18T16:38:40.027Z,14.94
2023-04-18T16:54:52.791Z,14.90
2023-04-18T17:11:24.448Z,14.57
2023-04-18T17:19:15.707Z,14.34
2023-04-18T17:26:49.096Z,14.20
2023-04-18T17:59:58.632Z,14.03
2023-04-18T18:39:16.613Z,13.27
2023-04-18T19:43:25.796Z,11.72
2023-04-18T19:45:01.585Z,11.63
2023-04-18T19:48:35.357Z,11.53
2023-04-18T19:52:44.335Z,11.46
2023-04-18T20:04:12.361Z,11.29
2023-04-18T20:07:26.258Z,11.25
2023-04-18T20:24:04.886Z,11.07
2023-04-18T20:47:08.979Z,10.93
2023-04-18T20:50:20.796Z,10.94
2023-04-18T21:20:23.271Z,10.85
2023-04-18T21:24:54.668Z,10.87
2023-04-18T21:32:51.452Z,10.84
2023-04-18T21:44:56.311Z,10.71
2023-04-18T21:48:25.048Z,10.67
2023-04-18T21:51:57.310Z,10.65
2023-04-18T21:55:58.359Z,10.64
2023-04-18T21:59:57.101Z,10.63
2023-04-18T22:03:13.679Z,10.62
2023-04-18T22:06:51.476Z,10.60
2023-04-18T22:14:17.479Z,10.53
2023-04-18T22:18:04.857Z,10.50
2023-04-18T22:26:20.360Z,10.40
2023-04-18T22:32:52.331Z,10.32
2023-04-18T22:35:56.329Z,10.28
2023-04-18T22:39:33.932Z,10.26
2023-04-18T22:46:57.746Z,10.15
2023-04-18T22:54:24.086Z,10.07
2023-04-18T22:57:15.183Z,10.04
2023-04-18T23:00:09.157Z,10.03
2023-04-18T23:03:07.547Z,10.02
2023-04-18T23:06:28.004Z,10.01
2023-04-18T23:10:13.573Z,9.99
2023-04-18T23:13:18.181Z,9.96
2023-04-18T23:17:14.998Z,9.92
2023-04-18T23:20:44.965Z,9.87
2023-04-18T23:27:34.240Z,9.81
2023-04-18T23:30:34.139Z,9.84
2023-04-18T23:34:53.317Z,9.71
2023-04-18T23:38:15.491Z,9.68
2023-04-18T23:42:03.020Z,9.65
2023-04-18T23:45:54.439Z,9.61
2023-04-18T23:49:28.861Z,9.59
2023-04-18T23:56:24.319Z,9.57
2023-04-18T23:59:38.257Z,9.57
